.
WxDataArchive / Data Records for 2015-10-16
2015-10-15 October 2015 2015-10-17

Data Records for Friday, 16 October 2015

Time	Temp	Chill	HIndex	Humid	Dewpt	 Wind 	HiWind	WindDir	Rain 	Barom
-----	----	-----	------	-----	-----	------	------	-------	-----	-----
00:00	50.7	50.7	50.7	63	38.6	0	1	315	0.00	30.040 
00:05	50.5	50.5	50.5	63	38.4	0	1	315	0.00	30.040 
00:10	50.4	50.4	50.4	63	38.3	0	1	315	0.00	30.040 
00:15	50.2	50.2	50.2	63	38.1	0	1	315	0.00	30.043 
00:20	49.9	49.9	49.9	63	37.8	0	1	315	0.00	30.043 
00:25	49.9	49.9	49.9	63	37.8	0	1	315	0.00	30.043 
00:30	49.8	49.8	49.8	64	38.1	0	1	315	0.00	30.053 
00:35	49.6	49.6	49.6	64	37.9	0	1	315	0.00	30.053 
00:40	49.5	49.5	49.5	63	37.4	0	1	315	0.00	30.053 
00:45	49.5	49.5	49.5	63	37.4	0	0	---	0.00	30.055 
00:50	49.2	49.2	49.2	64	37.5	0	0	---	0.00	30.055 
00:55	48.9	48.9	48.9	64	37.3	0	0	---	0.00	30.055 
01:00	48.6	48.6	48.6	65	37.4	0	0	---	0.00	30.058 
01:05	48.3	48.3	48.3	65	37.1	0	0	---	0.00	30.058 
01:10	48.0	48.0	48.0	65	36.8	0	0	---	0.00	30.058 
01:15	47.9	47.9	47.9	66	37.1	0	0	---	0.00	30.063 
01:20	47.6	47.6	47.6	66	36.8	0	0	---	0.00	30.063 
01:25	47.4	47.4	47.4	67	37.0	0	0	---	0.00	30.063 
01:30	47.0	47.0	47.0	67	36.6	0	0	---	0.00	30.065 
01:35	46.8	46.8	46.8	68	36.8	0	1	315	0.00	30.065 
01:40	46.5	46.5	46.5	69	36.9	0	0	---	0.00	30.065 
01:45	46.4	46.4	46.4	69	36.8	0	0	---	0.00	30.062 
01:50	46.2	46.2	46.2	69	36.6	0	1	315	0.00	30.062 
01:55	46.1	46.1	46.1	70	36.9	0	1	315	0.00	30.062 
02:00	46.0	46.0	46.0	70	36.8	0	0	---	0.00	30.064 
02:05	46.0	46.0	46.0	70	36.8	0	1	315	0.00	30.064 
02:10	46.0	46.0	46.0	70	36.8	0	1	315	0.00	30.064 
02:15	46.0	46.0	46.0	70	36.8	0	1	315	0.00	30.063 
02:20	46.0	46.0	46.0	70	36.8	0	1	315	0.00	30.063 
02:25	45.8	45.8	45.8	70	36.6	0	1	315	0.00	30.063 
02:30	45.8	45.8	45.8	70	36.6	0	1	315	0.00	30.065 
02:35	45.8	45.8	45.8	70	36.6	0	1	315	0.00	30.065 
02:40	45.7	45.7	45.7	70	36.5	0	0	---	0.00	30.065 
02:45	45.7	45.7	45.7	71	36.8	0	0	---	0.00	30.066 
02:50	45.5	45.5	45.5	71	36.7	0	0	---	0.00	30.066 
02:55	45.2	45.2	45.2	71	36.4	0	0	---	0.00	30.066 
03:00	44.9	44.9	44.9	72	36.4	0	0	---	0.00	30.074 
03:05	44.5	44.5	44.5	73	36.4	0	0	---	0.00	30.074 
03:10	44.2	44.2	44.2	74	36.4	0	0	---	0.00	30.074 
03:15	43.8	43.8	43.8	74	36.1	0	0	---	0.00	30.078 
03:20	43.5	43.5	43.5	74	35.8	0	0	---	0.00	30.078 
03:25	43.2	43.2	43.2	75	35.8	0	0	---	0.00	30.078 
03:30	42.9	42.9	42.9	75	35.5	0	0	---	0.00	30.079 
03:35	42.6	42.6	42.6	76	35.6	0	0	---	0.00	30.079 
03:40	42.2	42.2	42.2	77	35.5	0	0	---	0.00	30.079 
03:45	41.8	41.8	41.8	79	35.8	0	0	---	0.00	30.079 
03:50	41.6	41.6	41.6	81	36.2	0	0	---	0.00	30.079 
03:55	41.6	41.6	41.6	81	36.2	0	0	---	0.00	30.079 
04:00	41.6	41.6	41.6	82	36.5	0	1	315	0.00	30.078 
04:05	41.8	41.8	41.8	82	36.7	0	0	---	0.00	30.078 
04:10	41.9	41.9	41.9	82	36.8	0	0	---	0.00	30.078 
04:15	42.1	42.1	42.1	82	37.0	0	0	---	0.00	30.079 
04:20	42.1	42.1	42.1	82	37.0	0	0	---	0.00	30.079 
04:25	42.1	42.1	42.1	82	37.0	0	0	---	0.00	30.079 
04:30	42.2	42.2	42.2	82	37.1	0	0	---	0.00	30.079 
04:35	42.2	42.2	42.2	82	37.1	0	0	---	0.00	30.079 
04:40	42.3	42.3	42.3	82	37.2	0	0	---	0.00	30.079 
04:45	42.3	42.3	42.3	82	37.2	0	0	---	0.00	30.080 
04:50	42.3	42.3	42.3	82	37.2	0	0	---	0.00	30.080 
04:55	42.5	42.5	42.5	82	37.4	0	0	---	0.00	30.080 
05:00	42.5	42.5	42.5	82	37.4	0	0	---	0.00	30.082 
05:05	42.5	42.5	42.5	82	37.4	0	0	---	0.00	30.082 
05:10	42.5	42.5	42.5	82	37.4	0	0	---	0.00	30.082 
05:15	42.6	42.6	42.6	81	37.2	0	0	---	0.00	30.083 
05:20	42.6	42.6	42.6	81	37.2	0	1	315	0.00	30.083 
05:25	42.6	42.6	42.6	81	37.2	0	0	---	0.00	30.083 
05:30	42.6	42.6	42.6	81	37.2	0	0	---	0.00	30.090 
05:35	42.5	42.5	42.5	81	37.1	0	0	---	0.00	30.090 
05:40	42.5	42.5	42.5	81	37.1	0	0	---	0.00	30.090 
05:45	42.3	42.3	42.3	81	36.9	0	0	---	0.00	30.095 
05:50	42.3	42.3	42.3	81	36.9	0	0	---	0.00	30.095 
05:55	42.3	42.3	42.3	81	36.9	0	1	315	0.00	30.095 
06:00	42.5	42.5	42.5	81	37.1	0	1	315	0.00	30.099 
06:05	42.5	42.5	42.5	81	37.1	0	1	315	0.00	30.099 
06:10	42.8	42.8	42.8	81	37.4	0	1	315	0.00	30.099 
06:15	42.8	42.8	42.8	80	37.1	0	1	315	0.00	30.108 
06:20	42.9	42.9	42.9	80	37.2	0	1	315	0.00	30.108 
06:25	42.9	42.9	42.9	80	37.2	0	0	---	0.00	30.108 
06:30	42.8	42.8	42.8	80	37.1	0	0	---	0.00	30.112 
06:35	42.8	42.8	42.8	80	37.1	0	0	---	0.00	30.112 
06:40	42.8	42.8	42.8	80	37.1	0	0	---	0.00	30.112 
06:45	42.6	42.6	42.6	80	36.9	0	0	---	0.00	30.115 
06:50	42.5	42.5	42.5	80	36.8	0	0	---	0.00	30.115 
06:55	42.3	42.3	42.3	80	36.6	0	0	---	0.00	30.115 
07:00	42.2	42.2	42.2	80	36.5	0	0	---	0.00	30.122 
07:05	41.9	41.9	41.9	81	36.5	0	0	---	0.00	30.122 
07:10	41.9	41.9	41.9	81	36.5	0	0	---	0.00	30.122 
07:15	41.8	41.8	41.8	81	36.4	0	0	---	0.00	30.132 
07:20	41.6	41.6	41.6	81	36.2	0	0	---	0.00	30.132 
07:25	41.5	41.5	41.5	82	36.4	0	0	---	0.00	30.132 
07:30	41.2	41.2	41.2	82	36.1	0	0	---	0.00	30.134 
07:35	41.1	41.1	41.1	83	36.3	0	0	---	0.00	30.134 
07:40	41.1	41.1	41.1	83	36.3	0	0	---	0.00	30.134 
07:45	41.1	41.1	41.1	83	36.3	0	0	---	0.00	30.137 
07:50	40.9	40.9	40.9	83	36.1	0	0	---	0.00	30.137 
07:55	40.9	40.9	40.9	84	36.4	0	0	---	0.00	30.137 
08:00	40.9	40.9	40.9	84	36.4	0	0	---	0.00	30.144 
08:05	40.9	40.9	40.9	84	36.4	0	0	---	0.00	30.144 
08:10	40.8	40.8	40.8	84	36.3	0	0	---	0.00	30.144 
08:15	40.8	40.8	40.8	84	36.3	0	0	---	0.00	30.149 
08:20	40.8	40.8	40.8	84	36.3	0	0	---	0.00	30.149 
08:25	40.9	40.9	40.9	85	36.7	0	1	315	0.00	30.149 
08:30	41.1	41.1	41.1	85	36.9	0	0	---	0.00	30.151 
08:35	41.3	41.3	41.3	85	37.1	0	0	---	0.00	30.151 
08:40	41.8	41.8	41.8	85	37.6	0	0	---	0.00	30.151 
08:45	42.2	42.2	42.2	84	37.7	0	1	315	0.00	30.154 
08:50	42.6	42.6	42.6	84	38.1	0	1	315	0.00	30.154 
08:55	43.2	43.2	43.2	83	38.4	0	1	315	0.00	30.154 
09:00	43.6	43.6	43.6	83	38.8	0	1	315	0.00	30.156 
09:05	44.2	44.2	44.2	81	38.7	0	1	315	0.00	30.156 
09:10	44.9	44.9	44.9	80	39.1	0	1	315	0.00	30.156 
09:15	45.4	45.4	45.4	79	39.3	0	1	315	0.00	30.162 
09:20	46.0	46.0	46.0	78	39.5	0	1	315	0.00	30.162 
09:25	46.4	46.4	46.4	77	39.6	0	2	315	0.00	30.162 
09:30	47.0	47.0	47.0	76	39.8	0	1	315	0.00	30.161 
09:35	47.6	47.6	47.6	75	40.1	0	1	315	0.00	30.161 
09:40	48.0	48.0	48.0	73	39.8	1	4	315	0.00	30.161 
09:45	48.6	48.6	48.6	72	40.0	1	4	292	0.00	30.161 
09:50	49.1	49.1	49.1	72	40.5	1	3	292	0.00	30.161 
09:55	49.6	49.6	49.6	70	40.2	1	4	292	0.00	30.161 
10:00	50.1	50.1	50.1	69	40.3	1	4	292	0.00	30.161 
10:05	50.7	50.7	50.7	67	40.1	2	5	270	0.00	30.161 
10:10	51.1	51.1	51.1	66	40.1	2	5	315	0.00	30.161 
10:15	51.6	51.6	51.6	66	40.6	1	3	270	0.00	30.163 
10:20	52.0	52.0	52.0	65	40.6	2	6	270	0.00	30.163 
10:25	52.3	52.3	52.3	64	40.5	2	6	270	0.00	30.163 
10:30	52.8	52.8	52.8	63	40.6	2	6	270	0.00	30.165 
10:35	53.2	53.2	53.2	64	41.3	1	3	315	0.00	30.165 
10:40	53.3	53.3	53.3	61	40.2	2	4	292	0.00	30.165 
10:45	53.5	53.5	53.5	61	40.4	2	4	292	0.00	30.162 
10:50	53.9	53.9	53.9	62	41.2	1	4	292	0.00	30.162 
10:55	54.2	54.2	54.2	61	41.0	1	4	292	0.00	30.162 
11:00	54.5	54.5	54.5	60	40.9	3	5	270	0.00	30.159 
11:05	54.4	54.4	54.4	59	40.4	3	8	270	0.00	30.159 
11:10	54.5	54.5	54.5	59	40.5	3	7	270	0.00	30.159 
11:15	54.7	54.7	54.7	60	41.1	2	6	315	0.00	30.159 
11:20	55.3	55.3	55.3	58	40.8	2	5	292	0.00	30.159 
11:25	55.4	55.4	55.4	56	40.0	3	9	292	0.00	30.159 
11:30	55.4	55.4	55.4	56	40.0	3	7	292	0.00	30.160 
11:35	55.6	55.6	55.6	57	40.6	2	5	270	0.00	30.160 
11:40	55.7	55.7	55.7	52	38.3	4	8	270	0.00	30.160 
11:45	55.4	55.4	55.4	52	38.1	3	6	292	0.00	30.161 
11:50	55.6	55.6	55.6	52	38.3	2	6	292	0.00	30.161 
11:55	55.6	55.6	55.6	52	38.3	3	7	270	0.00	30.161 
12:00	56.0	56.0	56.0	51	38.1	2	6	270	0.00	30.160 
12:05	56.2	56.2	56.2	47	36.2	3	7	315	0.00	30.160 
12:10	56.2	56.2	56.2	46	35.7	3	7	270	0.00	30.160 
12:15	56.2	56.2	56.2	47	36.2	3	6	292	0.00	30.159 
12:20	56.5	56.5	56.5	48	37.0	3	5	270	0.00	30.159 
12:25	56.5	56.5	56.5	48	37.0	3	10	292	0.00	30.159 
12:30	56.3	56.3	56.3	46	35.8	3	6	270	0.00	30.159 
12:35	56.2	56.2	56.2	47	36.2	2	6	315	0.00	30.159 
12:40	55.9	55.9	55.9	47	36.0	1	3	292	0.00	30.159 
12:45	55.3	55.3	55.3	45	34.3	3	10	315	0.00	30.159 
12:50	55.0	55.0	55.0	46	34.6	3	6	270	0.00	30.159 
12:55	54.5	54.5	54.5	48	35.2	3	12	292	0.00	30.159 
13:00	53.5	53.5	53.5	57	38.6	3	11	292	0.00	30.162 
13:05	52.6	52.6	52.6	59	38.7	1	4	338	0.00	30.162 
13:10	52.5	52.5	52.5	59	38.6	0	4	338	0.00	30.162 
13:15	52.3	52.3	52.3	59	38.4	1	4	338	0.00	30.162 
13:20	52.6	52.6	52.6	58	38.2	1	4	292	0.00	30.162 
13:25	53.2	53.2	53.2	58	38.8	2	5	292	0.00	30.162 
13:30	54.1	54.1	54.1	55	38.3	2	6	315	0.00	30.150 
13:35	54.4	54.4	54.4	55	38.6	2	7	270	0.00	30.150 
13:40	54.2	54.2	54.2	57	39.3	2	7	270	0.00	30.150 
13:45	53.6	53.6	53.6	59	39.6	2	4	315	0.00	30.148 
13:50	53.8	53.8	53.8	54	37.5	3	5	292	0.00	30.148 
13:55	54.7	54.7	54.7	55	38.9	2	7	270	0.00	30.148 
14:00	55.1	55.1	55.1	52	37.8	2	10	292	0.00	30.146 
14:05	54.8	54.8	54.8	55	38.9	2	5	270	0.00	30.146 
14:10	54.4	54.4	54.4	54	38.1	4	8	292	0.00	30.146 
14:15	54.2	54.2	54.2	56	38.8	2	6	270	0.00	30.147 
14:20	55.0	55.0	55.0	54	38.7	2	5	270	0.00	30.147 
14:25	55.6	55.6	55.6	50	37.3	4	13	315	0.00	30.147 
14:30	56.0	56.0	56.0	50	37.6	3	8	270	0.00	30.139 
14:35	56.5	56.5	56.5	47	36.5	3	7	270	0.00	30.139 
14:40	56.3	56.3	56.3	46	35.8	3	6	270	0.00	30.139 
14:45	56.6	56.6	56.6	46	36.1	2	4	270	0.00	30.131 
14:50	56.7	56.7	56.7	46	36.2	2	5	270	0.00	30.131 
14:55	56.5	56.5	56.5	45	35.4	2	5	270	0.00	30.131 
15:00	56.5	56.5	56.5	45	35.4	2	6	292	0.00	30.133 
15:05	57.0	57.0	57.0	44	35.3	5	10	292	0.00	30.133 
15:10	57.5	57.5	57.5	40	33.4	3	7	270	0.00	30.133 
15:15	57.6	57.6	57.6	40	33.5	2	6	270	0.00	30.134 
15:20	57.8	57.8	57.8	40	33.6	2	6	292	0.00	30.134 
15:25	57.5	57.5	57.5	39	32.7	3	6	270	0.00	30.134 
15:30	57.3	57.3	57.3	39	32.6	3	6	292	0.00	30.139 
15:35	57.2	57.2	57.2	38	31.8	3	6	292	0.00	30.139 
15:40	56.7	56.7	56.7	37	30.7	3	9	292	0.00	30.139 
15:45	56.6	56.6	56.6	37	30.6	5	12	292	0.00	30.142 
15:50	56.3	56.3	56.3	36	29.7	4	9	315	0.00	30.142 
15:55	56.2	56.2	56.2	36	29.6	4	9	315	0.00	30.142 
16:00	55.7	55.7	55.7	37	29.8	4	9	292	0.00	30.148 
16:05	55.4	55.4	55.4	37	29.6	4	10	270	0.00	30.148 
16:10	55.6	55.6	55.6	37	29.7	4	9	270	0.00	30.148 
16:15	55.3	55.3	55.3	37	29.5	5	11	292	0.00	30.157 
16:20	55.1	55.1	55.1	37	29.3	5	11	270	0.00	30.157 
16:25	55.0	55.0	55.0	38	29.9	3	9	270	0.00	30.157 
16:30	54.8	54.8	54.8	36	28.4	5	10	292	0.00	30.161 
16:35	54.5	54.5	54.5	36	28.1	4	9	292	0.00	30.161 
16:40	54.2	54.2	54.2	37	28.5	4	10	338	0.00	30.161 
16:45	54.2	54.2	54.2	37	28.5	4	9	292	0.00	30.169 
16:50	54.1	54.1	54.1	37	28.4	3	6	270	0.00	30.169 
16:55	53.9	53.9	53.9	40	30.1	2	5	292	0.00	30.169 
17:00	53.6	53.6	53.6	41	30.5	4	8	292	0.00	30.173 
17:05	53.3	53.3	53.3	42	30.8	3	9	338	0.00	30.173 
17:10	53.2	53.2	53.2	39	28.9	4	9	270	0.00	30.173 
17:15	53.1	53.1	53.1	39	28.8	3	6	270	0.00	30.181 
17:20	53.1	53.1	53.1	40	29.4	2	6	270	0.00	30.181 
17:25	53.1	53.1	53.1	40	29.4	3	7	292	0.00	30.181 
17:30	52.9	52.9	52.9	39	28.6	2	6	292	0.00	30.184 
17:35	52.5	52.5	52.5	39	28.3	4	10	292	0.00	30.184 
17:40	52.2	52.2	52.2	39	28.0	3	7	270	0.00	30.184 
17:45	52.0	52.0	52.0	41	29.0	3	9	270	0.00	30.192 
17:50	51.4	51.4	51.4	42	29.1	3	7	338	0.00	30.192 
17:55	50.7	50.7	50.7	43	29.0	4	10	338	0.00	30.192 
18:00	50.4	50.4	50.4	42	28.2	4	7	315	0.00	30.201 
18:05	50.2	50.2	50.2	41	27.4	3	8	292	0.00	30.201 
18:10	50.1	50.1	50.1	42	27.9	3	7	292	0.00	30.201 
18:15	49.8	49.8	49.8	42	27.6	3	6	292	0.00	30.212 
18:20	49.6	49.6	49.6	43	28.0	2	7	315	0.00	30.212 
18:25	49.5	49.5	49.5	43	27.9	1	6	292	0.00	30.212 
18:30	49.2	49.2	49.2	46	29.3	1	4	315	0.00	30.220 
18:35	48.8	48.8	48.8	48	30.0	1	5	338	0.00	30.220 
18:40	48.5	48.5	48.5	48	29.7	2	6	315	0.00	30.220 
18:45	48.0	48.0	48.0	48	29.3	2	5	292	0.00	30.228 
18:50	47.7	47.7	47.7	47	28.5	2	6	292	0.00	30.228 
18:55	47.6	47.6	47.6	48	28.9	2	5	338	0.00	30.228 
19:00	47.4	47.4	47.4	48	28.7	2	6	292	0.00	30.236 
19:05	47.3	47.3	47.3	48	28.6	2	6	292	0.00	30.236 
19:10	47.1	47.1	47.1	51	29.9	2	5	292	0.00	30.236 
19:15	47.0	47.0	47.0	48	28.3	2	5	292	0.00	30.238 
19:20	46.8	46.8	46.8	48	28.2	1	4	315	0.00	30.238 
19:25	46.5	46.5	46.5	49	28.4	1	3	315	0.00	30.238 
19:30	46.4	46.4	46.4	48	27.8	1	4	315	0.00	30.239 
19:35	46.2	46.2	46.2	48	27.6	0	2	315	0.00	30.239 
19:40	46.1	46.1	46.1	49	28.0	0	1	315	0.00	30.239 
19:45	45.8	45.8	45.8	50	28.2	0	1	315	0.00	30.241 
19:50	45.5	45.5	45.5	50	28.0	0	1	315	0.00	30.241 
19:55	45.2	45.2	45.2	51	28.2	0	1	315	0.00	30.241 
20:00	45.1	45.1	45.1	51	28.1	0	0	---	0.00	30.246 
20:05	44.9	44.9	44.9	52	28.4	0	1	315	0.00	30.246 
20:10	44.6	44.6	44.6	53	28.5	0	1	315	0.00	30.246 
20:15	44.6	44.6	44.6	53	28.5	0	0	---	0.00	30.249 
20:20	44.5	44.5	44.5	54	28.9	0	0	---	0.00	30.249 
20:25	44.5	44.5	44.5	54	28.9	0	1	315	0.00	30.249 
20:30	44.5	44.5	44.5	54	28.9	0	0	---	0.00	30.253 
20:35	44.3	44.3	44.3	55	29.2	0	0	---	0.00	30.253 
20:40	44.2	44.2	44.2	55	29.1	0	0	---	0.00	30.253 
20:45	44.1	44.1	44.1	56	29.4	0	1	315	0.00	30.256 
20:50	43.9	43.9	43.9	57	29.7	0	0	---	0.00	30.256 
20:55	43.8	43.8	43.8	58	30.0	0	0	---	0.00	30.256 
21:00	43.3	43.3	43.3	58	29.5	0	0	---	0.00	30.255 
21:05	42.9	42.9	42.9	59	29.6	0	0	---	0.00	30.255 
21:10	42.6	42.6	42.6	60	29.7	0	0	---	0.00	30.255 
21:15	42.2	42.2	42.2	61	29.7	0	0	---	0.00	30.251 
21:20	41.8	41.8	41.8	62	29.7	0	0	---	0.00	30.251 
21:25	41.5	41.5	41.5	64	30.2	0	0	---	0.00	30.251 
21:30	41.2	41.2	41.2	65	30.3	0	0	---	0.00	30.252 
21:35	40.8	40.8	40.8	65	30.0	0	0	---	0.00	30.252 
21:40	40.5	40.5	40.5	66	30.0	0	0	---	0.00	30.252 
21:45	40.2	40.2	40.2	67	30.1	0	0	---	0.00	30.250 
21:50	40.2	40.2	40.2	68	30.5	0	0	---	0.00	30.250 
21:55	40.3	40.3	40.3	68	30.6	0	0	---	0.00	30.250 
22:00	40.5	40.5	40.5	68	30.8	0	0	---	0.00	30.251 
22:05	40.5	40.5	40.5	69	31.1	0	0	---	0.00	30.251 
22:10	40.5	40.5	40.5	69	31.1	0	0	---	0.00	30.251 
22:15	40.6	40.6	40.6	69	31.2	0	0	---	0.00	30.245 
22:20	40.6	40.6	40.6	69	31.2	0	0	---	0.00	30.245 
22:25	40.5	40.5	40.5	69	31.1	0	0	---	0.00	30.245 
22:30	40.5	40.5	40.5	69	31.1	0	0	---	0.00	30.244 
22:35	40.3	40.3	40.3	70	31.3	0	0	---	0.00	30.244 
22:40	40.1	40.1	40.1	70	31.1	0	0	---	0.00	30.244 
22:45	39.9	39.9	39.9	71	31.3	0	0	---	0.00	30.246 
22:50	39.6	39.6	39.6	72	31.3	0	0	---	0.00	30.246 
22:55	39.2	39.2	39.2	73	31.3	0	0	---	0.00	30.246 
23:00	38.9	38.9	38.9	73	31.0	0	0	---	0.00	30.248 
23:05	38.6	38.6	38.6	74	31.0	0	0	---	0.00	30.248 
23:10	38.3	38.3	38.3	74	30.8	0	0	---	0.00	30.248 
23:15	38.0	38.0	38.0	75	30.8	0	0	---	0.00	30.248 
23:20	37.9	37.9	37.9	77	31.3	0	0	---	0.00	30.248 
23:25	37.8	37.8	37.8	77	31.2	0	0	---	0.00	30.248 
23:30	37.8	37.8	37.8	78	31.6	0	0	---	0.00	30.244 
23:35	37.6	37.6	37.6	79	31.7	0	0	---	0.00	30.244 
23:40	37.5	37.5	37.5	79	31.6	0	0	---	0.00	30.244 
23:45	37.5	37.5	37.5	80	31.9	0	0	---	0.00	30.246 
23:50	37.5	37.5	37.5	80	31.9	0	0	---	0.00	30.246 
23:55	37.3	37.3	37.3	81	32.0	0	0	---	0.00	30.246 

CoCoRaHS
IN-AL-39
A2 Web Hosting
Creative Commons License
GoDaddy
search engine by freefind advanced

loaded 2018-11-16 23:23:31 • last modified 2010-11-18 10:43:29
Privacy PolicyDisclaimer
• wx.awcolley.com is powered by PmWiki v.2002016 •
• all content (unless otherwise noted) © 2018 A W Colley